Crane, Texas
Current Conditions -  °F | °C
As of 10:53 AM on Saturday 25 Oct 2014 (Local Time) from KODO Reporting Station
Clear Clear  
Wind Chill: 74°   Ceiling: Unl
Heat Index: 74°   Visibility: 10mi
Dew Point: 57°   Wind: 13mph
Humidity: 55%   Direction: 210°SSW
Pressure: 30.22"   Gusts: NA
Location:  31.4°N, 102.35°W
Report Text: KODO 251553Z AUTO 21011KT 10SM CLR 23/14 A3022 RMK AO2 SLP194 T02330139
Loading
Personal Weather Stations






























Interactive Weather Map New forecast layout! Learn more

10-Day Weather Forecast

Advertisements
Track Severe Weather on mobile